Herbert J Plaisance — WDE6917 — position and weather

sailwx.info

Track history (hours):
 
Tides and Currents Weather Stations Pressure Air Temp Water Temp Dewpoint Dewpoint Depression Visibility Wind Speed Wind Dir Waves Ship Positions

Herbert J Plaisance

Owner: S & B Marine LLC, Harvey, LA. More information available from US FCC via Universal Licensing System and Coast Guard Vessel Documentation Center.

Last reported at 2015-May-21 09:07 UTC. Time now 2015-May-27 01:53 UTC.
Position N 30°17' W 091°19'.

Length 20 m; draft 3 m.

Type: Towing. MMSI: 367386576.

Date/timePositionNaut miles runAvg speedWind from/ knotsBaromVisibWave heightAir tempDewpointWater temp
2015-May-21 09:07N 30°17' W 091°19'7 3.7
2015-May-21 07:19N 30°23' W 091°19'2 2.6
2015-May-21 06:27N 30°25' W 091°18'2 2.7
2015-May-21 05:33N 30°26' W 091°15'2 2.0
2015-May-21 04:33N 30°26' W 091°13'1 0.8
2015-May-21 03:33N 30°26' W 091°12'0 0.1
2015-May-21 02:33N 30°26' W 091°12'0 0.0
2015-May-21 01:33N 30°26' W 091°12'0 0.3
2015-May-21 00:33N 30°25' W 091°12'6 6.0
2015-May-20 23:33N 30°31' W 091°13'2 2.3
2015-May-20 22:33N 30°33' W 091°14'7 6.2
2015-May-20 21:23N 30°39' W 091°19'7 8.2
2015-May-20 20:29N 30°45' W 091°23'  
2015-May-16 21:06N 30°43' W 091°21'2 4.2
2015-May-16 20:33N 30°41' W 091°21'4 3.2
2015-May-16 19:24N 30°38' W 091°18'3 3.3
2015-May-16 18:24N 30°35' W 091°19'2 2.9
2015-May-16 17:33N 30°34' W 091°16'3 2.7
2015-May-16 16:33N 30°32' W 091°15'2 1.7
2015-May-16 15:33N 30°30' W 091°16'3 3.0
2015-May-16 14:33N 30°31' W 091°12'3 3.4
2015-May-16 13:33N 30°28' W 091°12'2 1.9
2015-May-16 12:33N 30°26' W 091°13'1 0.7
2015-May-16 11:33N 30°26' W 091°13'1 0.6
2015-May-16 10:32N 30°27' W 091°14'0 0.0
2015-May-16 09:33N 30°27' W 091°14'0 0.1
2015-May-16 08:33N 30°27' W 091°14'1 1.1
2015-May-16 07:29N 30°26' W 091°15'0 0.0
2015-May-16 06:33N 30°26' W 091°15'0 0.0
2015-May-16 05:22N 30°26' W 091°15'0 0.0
2015-May-16 04:33N 30°26' W 091°15'0 0.0
2015-May-16 03:33N 30°26' W 091°15'0 0.0
2015-May-16 02:33N 30°26' W 091°15'0 0.0
2015-May-16 01:33N 30°26' W 091°15'0 0.0
2015-May-15 23:31N 30°26' W 091°15'0 0.0
2015-May-15 20:33N 30°26' W 091°15'0 0.3
2015-May-15 19:33N 30°26' W 091°15'0 0.0
2015-May-15 18:33N 30°26' W 091°15'0 0.0
2015-May-15 17:33N 30°26' W 091°15'0 0.0
2015-May-15 16:33N 30°26' W 091°15'0 0.0
2015-May-15 15:32N 30°26' W 091°15'0 0.2
2015-May-15 14:30N 30°26' W 091°15'0 0.2
2015-May-15 13:33N 30°26' W 091°15'0 0.2
2015-May-15 12:28N 30°26' W 091°15'0 0.2
2015-May-15 11:33N 30°26' W 091°15'0 0.0
2015-May-14 22:33N 30°26' W 091°15'0 0.3
2015-May-14 21:27N 30°26' W 091°15'0 0.3
2015-May-14 20:33N 30°26' W 091°15'0 0.0
2015-May-14 19:33N 30°26' W 091°15'0 0.2
2015-May-14 18:23N 30°26' W 091°15'0 0.4
2015-May-14 17:33N 30°26' W 091°15'0 0.0
2015-May-14 16:33N 30°26' W 091°15'0 0.2
2015-May-14 15:32N 30°26' W 091°15'0 0.2
2015-May-14 14:33N 30°26' W 091°15'0 0.2
2015-May-14 13:33N 30°26' W 091°15'0 0.2
2015-May-14 12:33N 30°26' W 091°15'0 0.0
2015-May-14 11:29N 30°26' W 091°15'0 0.0
2015-May-14 10:33N 30°26' W 091°15'0 0.0
2015-May-14 09:27N 30°26' W 091°15'0 0.0
2015-May-14 08:04N 30°26' W 091°15'0 0.0
2015-May-14 07:21N 30°26' W 091°15'0 0.0
2015-May-14 06:28N 30°26' W 091°15'0 0.0
2015-May-14 05:33N 30°26' W 091°15'0 0.0
2015-May-14 04:33N 30°26' W 091°15'0 0.0
2015-May-14 02:32N 30°26' W 091°15'0 0.2
2015-May-14 01:33N 30°26' W 091°15'2 1.9
2015-May-14 00:21N 30°26' W 091°12'0 0.4
2015-May-13 23:33N 30°26' W 091°12'0 0.1
2015-May-13 22:08N 30°26' W 091°12'0 0.0
2015-May-13 21:33N 30°26' W 091°12'2 2.1
2015-May-13 20:33N 30°28' W 091°12'5 5.2
2015-May-13 19:33N 30°31' W 091°17'4 3.6
2015-May-13 18:33N 30°34' W 091°16'  
Track history (hours):
 
Tides and Currents Weather Stations Pressure Air Temp Water Temp Dewpoint Dewpoint Depression Visibility Wind Speed Wind Dir Waves Ship Positions

Herbert J Plaisance

Owner: S & B Marine LLC, Harvey, LA. More information available from US FCC via Universal Licensing System and Coast Guard Vessel Documentation Center.

Last reported at 2015-May-21 09:07 UTC. Time now 2015-May-27 01:53 UTC.
Position N 30°17' W 091°19'.

Length 20 m; draft 3 m.

Type: Towing. MMSI: 367386576.

Date/timePositionNaut miles runAvg speedWind from/ knotsBaromVisibWave heightAir tempDewpointWater temp
2015-May-21 09:07N 30°17' W 091°19'7 3.7
2015-May-21 07:19N 30°23' W 091°19'2 2.6
2015-May-21 06:27N 30°25' W 091°18'2 2.7
2015-May-21 05:33N 30°26' W 091°15'2 2.0
2015-May-21 04:33N 30°26' W 091°13'1 0.8
2015-May-21 03:33N 30°26' W 091°12'0 0.1
2015-May-21 02:33N 30°26' W 091°12'0 0.0
2015-May-21 01:33N 30°26' W 091°12'0 0.3
2015-May-21 00:33N 30°25' W 091°12'6 6.0
2015-May-20 23:33N 30°31' W 091°13'2 2.3
2015-May-20 22:33N 30°33' W 091°14'7 6.2
2015-May-20 21:23N 30°39' W 091°19'7 8.2
2015-May-20 20:29N 30°45' W 091°23'  
2015-May-16 21:06N 30°43' W 091°21'2 4.2
2015-May-16 20:33N 30°41' W 091°21'4 3.2
2015-May-16 19:24N 30°38' W 091°18'3 3.3
2015-May-16 18:24N 30°35' W 091°19'2 2.9
2015-May-16 17:33N 30°34' W 091°16'3 2.7
2015-May-16 16:33N 30°32' W 091°15'2 1.7
2015-May-16 15:33N 30°30' W 091°16'3 3.0
2015-May-16 14:33N 30°31' W 091°12'3 3.4
2015-May-16 13:33N 30°28' W 091°12'2 1.9
2015-May-16 12:33N 30°26' W 091°13'1 0.7
2015-May-16 11:33N 30°26' W 091°13'1 0.6
2015-May-16 10:32N 30°27' W 091°14'0 0.0
2015-May-16 09:33N 30°27' W 091°14'0 0.1
2015-May-16 08:33N 30°27' W 091°14'1 1.1
2015-May-16 07:29N 30°26' W 091°15'0 0.0
2015-May-16 06:33N 30°26' W 091°15'0 0.0
2015-May-16 05:22N 30°26' W 091°15'0 0.0
2015-May-16 04:33N 30°26' W 091°15'0 0.0
2015-May-16 03:33N 30°26' W 091°15'0 0.0
2015-May-16 02:33N 30°26' W 091°15'0 0.0
2015-May-16 01:33N 30°26' W 091°15'0 0.0
2015-May-15 23:31N 30°26' W 091°15'0 0.0
2015-May-15 20:33N 30°26' W 091°15'0 0.3
2015-May-15 19:33N 30°26' W 091°15'0 0.0
2015-May-15 18:33N 30°26' W 091°15'0 0.0
2015-May-15 17:33N 30°26' W 091°15'0 0.0
2015-May-15 16:33N 30°26' W 091°15'0 0.0
2015-May-15 15:32N 30°26' W 091°15'0 0.2
2015-May-15 14:30N 30°26' W 091°15'0 0.2
2015-May-15 13:33N 30°26' W 091°15'0 0.2
2015-May-15 12:28N 30°26' W 091°15'0 0.2
2015-May-15 11:33N 30°26' W 091°15'0 0.0
2015-May-14 22:33N 30°26' W 091°15'0 0.3
2015-May-14 21:27N 30°26' W 091°15'0 0.3
2015-May-14 20:33N 30°26' W 091°15'0 0.0
2015-May-14 19:33N 30°26' W 091°15'0 0.2
2015-May-14 18:23N 30°26' W 091°15'0 0.4
2015-May-14 17:33N 30°26' W 091°15'0 0.0
2015-May-14 16:33N 30°26' W 091°15'0 0.2
2015-May-14 15:32N 30°26' W 091°15'0 0.2
2015-May-14 14:33N 30°26' W 091°15'0 0.2
2015-May-14 13:33N 30°26' W 091°15'0 0.2
2015-May-14 12:33N 30°26' W 091°15'0 0.0
2015-May-14 11:29N 30°26' W 091°15'0 0.0
2015-May-14 10:33N 30°26' W 091°15'0 0.0
2015-May-14 09:27N 30°26' W 091°15'0 0.0
2015-May-14 08:04N 30°26' W 091°15'0 0.0
2015-May-14 07:21N 30°26' W 091°15'0 0.0
2015-May-14 06:28N 30°26' W 091°15'0 0.0
2015-May-14 05:33N 30°26' W 091°15'0 0.0
2015-May-14 04:33N 30°26' W 091°15'0 0.0
2015-May-14 02:32N 30°26' W 091°15'0 0.2
2015-May-14 01:33N 30°26' W 091°15'2 1.9
2015-May-14 00:21N 30°26' W 091°12'0 0.4
2015-May-13 23:33N 30°26' W 091°12'0 0.1
2015-May-13 22:08N 30°26' W 091°12'0 0.0
2015-May-13 21:33N 30°26' W 091°12'2 2.1
2015-May-13 20:33N 30°28' W 091°12'5 5.2
2015-May-13 19:33N 30°31' W 091°17'4 3.6
2015-May-13 18:33N 30°34' W 091°16'  

Dump ship's entire track history